Aviation Digital Data Service (ADDS)

Output produced by TAFs form (0433 UTC 22 September 2017)
found at http://www.aviationweather.gov/adds/tafs/
 
METAR text: OKBK 220400Z 30004KT 6000 SKC 27/20 Q1006 NOSIG
Conditions at: OKBK (KUWAIT INTL (MIL, KW) observed 0400 UTC 22 September 2017
Temperature: 27.0°C (81°F)
Dewpoint: 20.0°C (68°F) [RH = 66%]
Pressure (altimeter): 29.70 inches Hg (1006.0 mb)
Winds: from the WNW (300 degrees) at 5 MPH (4 knots; 2.1 m/s)
Visibility: 4 miles (6 km)
Ceiling: at least 12,000 feet AGL
Clouds: clear skies
Weather: no significant weather observed at this time

Forecast for: OKBK (KUWAIT INTL (MIL, KW)
Text: TAF OKBK 211645Z 2118/2224 15009KT 7000 SKC
Forecast period: 1800 UTC 21 September 2017 to 0000 UTC 23 September 2017
Forecast type: FROM: standard forecast or significant change
Winds: from the SSE (150 degrees) at 10 MPH (9 knots; 4.7 m/s)
Visibility: 4 miles (7 km)
Clouds: clear skies
Weather: no significant weather forecast for this period
Text: TEMPO 2118/2205 VRB03KT 2000 BR
Forecast period: 1800 UTC 21 September 2017 to 0500 UTC 22 September 2017
Forecast type: TEMPORARY: The following changes expected for less than half the time period
Winds: variable direction winds at 3 MPH (3 knots; 1.6 m/s)
Visibility: 1.24 miles (2.00 km)
Weather: BR  (mist)